createdAt,value
2018-10-07T00:02:14.995Z,98017.00
2018-10-07T00:04:44.260Z,98018.00
2018-10-07T00:07:13.349Z,98015.00
2018-10-07T00:09:42.454Z,98023.00
2018-10-07T00:12:11.897Z,98020.00
2018-10-07T00:14:40.955Z,98027.00
2018-10-07T00:17:10.049Z,98022.00
2018-10-07T00:19:39.168Z,98020.00
2018-10-07T00:22:08.236Z,98029.00
2018-10-07T00:24:37.320Z,98035.00
2018-10-07T00:27:06.410Z,98040.00
2018-10-07T00:29:35.563Z,98043.00
2018-10-07T00:32:10.024Z,98046.00
2018-10-07T00:34:39.177Z,98046.00
2018-10-07T00:37:08.216Z,98054.00
2018-10-07T00:39:37.474Z,98059.00
2018-10-07T00:42:06.571Z,98058.00
2018-10-07T00:44:35.717Z,98055.00
2018-10-07T00:47:04.894Z,98054.00
2018-10-07T00:49:34.013Z,98051.00
2018-10-07T00:52:03.128Z,98049.00
2018-10-07T00:54:32.246Z,98054.00
2018-10-07T00:57:01.314Z,98059.00
2018-10-07T00:59:30.404Z,98057.00
2018-10-07T01:01:59.492Z,98061.00
2018-10-07T01:04:28.567Z,98062.00
2018-10-07T01:06:57.624Z,98056.00
2018-10-07T01:09:26.716Z,98061.00
2018-10-07T01:11:55.793Z,98059.00
2018-10-07T01:14:24.885Z,98059.00
2018-10-07T01:16:54.208Z,98057.00
2018-10-07T01:19:23.285Z,98055.00
2018-10-07T01:21:53.420Z,98054.00
2018-10-07T01:24:22.482Z,98058.00
2018-10-07T01:26:51.593Z,98059.00
2018-10-07T01:29:20.655Z,98060.00
2018-10-07T01:31:49.784Z,98059.00
2018-10-07T01:34:18.812Z,98063.00
2018-10-07T01:36:47.893Z,98064.00
2018-10-07T01:39:16.992Z,98067.00
2018-10-07T01:41:46.072Z,98062.00
2018-10-07T01:44:15.184Z,98063.00
2018-10-07T01:46:44.236Z,98068.00
2018-10-07T01:49:13.276Z,98069.00
2018-10-07T01:51:42.361Z,98069.00
2018-10-07T01:54:11.764Z,98063.00
2018-10-07T01:56:40.768Z,98064.00
2018-10-07T01:59:09.896Z,98064.00
2018-10-07T02:01:39.049Z,98063.00
2018-10-07T02:04:08.144Z,98064.00
2018-10-07T02:06:37.241Z,98064.00
2018-10-07T02:09:08.900Z,98065.00
2018-10-07T02:11:37.968Z,98067.00
2018-10-07T02:14:06.981Z,98072.00
2018-10-07T02:16:36.044Z,98077.00
2018-10-07T02:19:05.177Z,98082.00
2018-10-07T02:21:34.272Z,98078.00
2018-10-07T02:24:03.276Z,98076.00
2018-10-07T02:26:32.336Z,98076.00
2018-10-07T02:29:01.416Z,98076.00
2018-10-07T02:31:30.960Z,98074.00
2018-10-07T02:33:59.963Z,98078.00
2018-10-07T02:36:29.028Z,98079.00
2018-10-07T02:38:58.121Z,98078.00
2018-10-07T02:41:27.648Z,98081.00
2018-10-07T02:43:56.721Z,98078.00
2018-10-07T02:46:25.809Z,98079.00
2018-10-07T02:48:54.896Z,98074.00
2018-10-07T02:51:24.189Z,98077.00
2018-10-07T02:53:53.328Z,98078.00
2018-10-07T02:56:22.530Z,98082.00
2018-10-07T02:58:51.589Z,98093.00
2018-10-07T03:01:20.887Z,98087.00
2018-10-07T03:03:49.944Z,98089.00
2018-10-07T03:06:19.064Z,98095.00
2018-10-07T03:08:48.720Z,98097.00
2018-10-07T03:11:17.704Z,98098.00
2018-10-07T03:13:46.729Z,98098.00
2018-10-07T03:16:15.880Z,98097.00
2018-10-07T03:18:44.976Z,98096.00
2018-10-07T03:21:14.016Z,98102.00
2018-10-07T03:23:43.156Z,98101.00
2018-10-07T03:26:12.224Z,98104.00
2018-10-07T03:28:41.295Z,98105.00
2018-10-07T03:31:10.473Z,98102.00
2018-10-07T03:33:39.573Z,98105.00
2018-10-07T03:36:08.621Z,98114.00
2018-10-07T03:38:37.652Z,98117.00
2018-10-07T03:41:07.104Z,98126.00
2018-10-07T03:43:36.237Z,98129.00
2018-10-07T03:46:05.348Z,98139.00
2018-10-07T03:48:34.428Z,98142.00
2018-10-07T03:51:03.473Z,98144.00
2018-10-07T03:53:32.613Z,98157.00
2018-10-07T03:56:01.692Z,98156.00
2018-10-07T03:58:31.264Z,98162.00
2018-10-07T04:01:00.387Z,98172.00
2018-10-07T04:03:29.536Z,98179.00
2018-10-07T04:05:58.628Z,98182.00
2018-10-07T04:08:27.703Z,98179.00
2018-10-07T04:10:57.081Z,98174.00
2018-10-07T04:13:26.121Z,98171.00
2018-10-07T04:15:55.224Z,98179.00
2018-10-07T04:18:24.288Z,98181.00
2018-10-07T04:20:53.400Z,98180.00
2018-10-07T04:23:22.496Z,98174.00
2018-10-07T04:25:51.489Z,98172.00
2018-10-07T04:28:20.529Z,98175.00
2018-10-07T04:30:50.620Z,98174.00
2018-10-07T04:33:19.756Z,98175.00
2018-10-07T04:35:48.858Z,98180.00
2018-10-07T04:38:17.949Z,98182.00
2018-10-07T04:40:47.650Z,98186.00
2018-10-07T04:43:16.716Z,98187.00
2018-10-07T04:45:45.792Z,98185.00
2018-10-07T04:48:14.796Z,98187.00
2018-10-07T04:50:43.862Z,98193.00
2018-10-07T04:53:12.984Z,98197.00
2018-10-07T04:55:42.067Z,98196.00
2018-10-07T04:58:11.169Z,98202.00
2018-10-07T05:00:40.241Z,98211.00
2018-10-07T05:03:09.313Z,98210.00
2018-10-07T05:05:38.344Z,98205.00
2018-10-07T05:08:08.681Z,98208.00
2018-10-07T05:10:48.320Z,98214.00
2018-10-07T05:13:19.865Z,98218.00
2018-10-07T05:15:53.090Z,98225.00
2018-10-07T05:18:22.568Z,98233.00
2018-10-07T05:20:51.828Z,98238.00
2018-10-07T05:23:21.017Z,98241.00
2018-10-07T05:25:50.217Z,98240.00
2018-10-07T05:28:19.416Z,98254.00
2018-10-07T05:30:48.556Z,98261.00
2018-10-07T05:33:17.619Z,98267.00
2018-10-07T05:35:46.718Z,98263.00
2018-10-07T05:38:15.849Z,98264.00
2018-10-07T05:40:45.244Z,98268.00
2018-10-07T05:43:14.297Z,98276.00
2018-10-07T05:45:43.308Z,98273.00
2018-10-07T05:48:12.406Z,98278.00
2018-10-07T05:50:41.492Z,98287.00
2018-10-07T05:53:10.584Z,98295.00
2018-10-07T05:55:39.752Z,98292.00
2018-10-07T05:58:08.777Z,98292.00
2018-10-07T06:00:38.308Z,98291.00
2018-10-07T06:03:20.596Z,98290.00
2018-10-07T06:05:51.000Z,98295.00
2018-10-07T06:08:21.429Z,98294.00
2018-10-07T06:10:50.520Z,98299.00
2018-10-07T06:13:19.665Z,98300.00
2018-10-07T06:15:48.703Z,98307.00
2018-10-07T06:18:17.752Z,98315.00
2018-10-07T06:20:46.880Z,98322.00
2018-10-07T06:23:16.004Z,98325.00
2018-10-07T06:25:45.057Z,98327.00
2018-10-07T06:28:14.136Z,98326.00
2018-10-07T06:30:43.204Z,98334.00
2018-10-07T06:33:12.218Z,98339.00
2018-10-07T06:35:41.308Z,98339.00
2018-10-07T06:38:10.413Z,98341.00
2018-10-07T06:40:39.561Z,98345.00
2018-10-07T06:43:08.913Z,98350.00
2018-10-07T06:45:38.112Z,98338.00
2018-10-07T06:48:07.284Z,98337.00
2018-10-07T06:50:36.406Z,98328.00
2018-10-07T06:53:05.494Z,98321.00
2018-10-07T06:55:34.592Z,98316.00
2018-10-07T06:58:03.688Z,98312.00
2018-10-07T07:00:32.780Z,98312.00
2018-10-07T07:03:01.872Z,98318.00
2018-10-07T07:05:30.952Z,98326.00
2018-10-07T07:08:00.036Z,98338.00
2018-10-07T07:10:29.132Z,98340.00
2018-10-07T07:12:58.708Z,98344.00
2018-10-07T07:15:27.760Z,98354.00
2018-10-07T07:17:56.756Z,98349.00
2018-10-07T07:20:25.832Z,98351.00
2018-10-07T07:22:54.924Z,98369.00
2018-10-07T07:25:24.076Z,98382.00
2018-10-07T07:27:53.104Z,98400.00
2018-10-07T07:30:22.237Z,98412.00
2018-10-07T07:32:51.296Z,98432.00
2018-10-07T07:35:20.320Z,98440.00
2018-10-07T07:37:49.505Z,98438.00
2018-10-07T07:40:18.596Z,98443.00
2018-10-07T07:42:47.769Z,98441.00
2018-10-07T07:45:16.856Z,98433.00
2018-10-07T07:47:45.924Z,98441.00
2018-10-07T07:50:14.992Z,98426.00
2018-10-07T07:52:44.100Z,98429.00
2018-10-07T07:55:13.152Z,98434.00
2018-10-07T07:57:42.204Z,98436.00
2018-10-07T08:00:11.338Z,98437.00
2018-10-07T08:02:40.429Z,98449.00
2018-10-07T08:05:09.516Z,98444.00
2018-10-07T08:07:39.181Z,98442.00
2018-10-07T08:10:08.264Z,98438.00
2018-10-07T08:12:37.556Z,98431.00
2018-10-07T08:15:07.276Z,98424.00
2018-10-07T08:17:36.852Z,98427.00
2018-10-07T08:20:05.980Z,98426.00
2018-10-07T08:22:35.081Z,98426.00
2018-10-07T08:25:04.156Z,98426.00
2018-10-07T08:27:33.301Z,98425.00
2018-10-07T08:30:02.334Z,98423.00
2018-10-07T08:32:31.421Z,98422.00
2018-10-07T08:35:00.540Z,98415.00
2018-10-07T08:37:29.676Z,98410.00
2018-10-07T08:39:58.785Z,98421.00
2018-10-07T08:42:27.843Z,98421.00
2018-10-07T08:44:56.888Z,98423.00
2018-10-07T08:47:26.459Z,98409.00
2018-10-07T08:49:55.609Z,98404.00
2018-10-07T08:52:24.605Z,98403.00
2018-10-07T08:54:53.710Z,98397.00
2018-10-07T08:57:22.924Z,98392.00
2018-10-07T08:59:52.001Z,98393.00
2018-10-07T09:02:21.122Z,98396.00
2018-10-07T09:04:50.237Z,98398.00
2018-10-07T09:07:19.333Z,98387.00
2018-10-07T09:09:48.389Z,98390.00
2018-10-07T09:12:17.981Z,98399.00
2018-10-07T09:14:47.122Z,98394.00
2018-10-07T09:17:16.102Z,98398.00
2018-10-07T09:19:45.176Z,98393.00
2018-10-07T09:22:14.420Z,98393.00
2018-10-07T09:24:43.468Z,98392.00
2018-10-07T09:27:12.620Z,98413.00
2018-10-07T09:29:41.573Z,98410.00
2018-10-07T09:32:10.673Z,98408.00
2018-10-07T09:34:39.973Z,98425.00
2018-10-07T09:37:09.048Z,98429.00
2018-10-07T09:39:38.150Z,98430.00
2018-10-07T09:42:07.236Z,98419.00
2018-10-07T09:44:36.366Z,98423.00
2018-10-07T09:47:05.657Z,98415.00
2018-10-07T09:49:34.749Z,98416.00
2018-10-07T09:52:03.792Z,98418.00
2018-10-07T09:54:32.936Z,98415.00
2018-10-07T09:57:02.061Z,98429.00
2018-10-07T09:59:31.125Z,98440.00
2018-10-07T10:02:00.192Z,98440.00
2018-10-07T10:04:29.414Z,98433.00
2018-10-07T10:06:58.510Z,98450.00
2018-10-07T10:09:27.492Z,98450.00
2018-10-07T10:11:56.620Z,98452.00
2018-10-07T10:14:25.776Z,98449.00
2018-10-07T10:17:10.392Z,98458.00
2018-10-07T10:20:11.332Z,98464.00
2018-10-07T10:23:06.136Z,98469.00
2018-10-07T10:26:22.216Z,98467.00
2018-10-07T10:29:26.104Z,98470.00
2018-10-07T10:32:36.008Z,98470.00
2018-10-07T10:35:34.902Z,98473.00
2018-10-07T10:38:18.212Z,98474.00
2018-10-07T10:41:00.892Z,98460.00
2018-10-07T10:43:45.244Z,98458.00
2018-10-07T10:46:29.816Z,98466.00
2018-10-07T10:49:14.981Z,98471.00
2018-10-07T10:51:53.313Z,98480.00
2018-10-07T10:54:33.613Z,98502.00
2018-10-07T10:57:10.798Z,98505.00
2018-10-07T10:59:49.281Z,98510.00
2018-10-07T11:04:45.140Z,98500.00
2018-10-07T11:07:21.929Z,98505.00
2018-10-07T11:11:02.333Z,98506.00
2018-10-07T11:13:48.658Z,98495.00
2018-10-07T11:16:44.149Z,98495.00
2018-10-07T11:20:32.521Z,98487.00
2018-10-07T11:23:34.060Z,98490.00
2018-10-07T11:26:14.395Z,98495.00
2018-10-07T11:28:54.189Z,98485.00
2018-10-07T11:31:33.805Z,98466.00
2018-10-07T11:34:47.311Z,98462.00
2018-10-07T11:37:48.891Z,98456.00
2018-10-07T11:40:46.844Z,98492.00
2018-10-07T11:43:26.820Z,98487.00
2018-10-07T11:46:09.068Z,98484.00
2018-10-07T11:49:15.515Z,98487.00
2018-10-07T11:52:08.496Z,98484.00
2018-10-07T11:55:02.893Z,98491.00
2018-10-07T11:57:32.036Z,98487.00
2018-10-07T12:00:01.461Z,98491.00
2018-10-07T12:02:30.602Z,98487.00
2018-10-07T12:04:59.603Z,98483.00
2018-10-07T12:07:30.441Z,98472.00
2018-10-07T12:09:59.567Z,98477.00
2018-10-07T12:12:28.633Z,98472.00
2018-10-07T12:14:57.728Z,98487.00
2018-10-07T12:17:26.912Z,98490.00
2018-10-07T12:19:55.976Z,98497.00
2018-10-07T12:22:25.033Z,98493.00
2018-10-07T12:24:54.190Z,98490.00
2018-10-07T12:27:23.292Z,98506.00
2018-10-07T12:29:52.405Z,98498.00
2018-10-07T12:32:22.352Z,98501.00
2018-10-07T12:34:51.485Z,98498.00
2018-10-07T12:37:20.996Z,98497.00
2018-10-07T12:39:50.117Z,98503.00
2018-10-07T12:42:19.261Z,98499.00
2018-10-07T12:44:48.304Z,98490.00
2018-10-07T12:47:17.424Z,98510.00
2018-10-07T12:49:46.565Z,98508.00
2018-10-07T12:52:15.685Z,98514.00
2018-10-07T12:54:44.813Z,98508.00
2018-10-07T12:57:13.884Z,98514.00
2018-10-07T12:59:42.957Z,98517.00
2018-10-07T13:02:12.059Z,98509.00
2018-10-07T13:04:41.188Z,98519.00
2018-10-07T13:07:10.268Z,98524.00
2018-10-07T13:09:39.358Z,98531.00
2018-10-07T13:12:08.458Z,98537.00
2018-10-07T13:14:37.677Z,98527.00
2018-10-07T13:17:07.060Z,98532.00
2018-10-07T13:19:36.105Z,98536.00
2018-10-07T13:22:05.213Z,98536.00
2018-10-07T13:24:34.320Z,98544.00
2018-10-07T13:27:03.461Z,98551.00
2018-10-07T13:29:32.577Z,98549.00
2018-10-07T13:32:01.652Z,98552.00
2018-10-07T13:34:30.717Z,98555.00
2018-10-07T13:37:00.357Z,98552.00
2018-10-07T13:39:29.452Z,98557.00
2018-10-07T13:41:58.512Z,98558.00
2018-10-07T13:44:27.632Z,98565.00
2018-10-07T13:46:56.737Z,98566.00
2018-10-07T13:49:25.780Z,98570.00
2018-10-07T13:51:55.074Z,98571.00
2018-10-07T13:54:24.185Z,98573.00
2018-10-07T13:56:53.265Z,98575.00
2018-10-07T13:59:22.372Z,98569.00
2018-10-07T14:01:51.900Z,98571.00
2018-10-07T14:04:20.911Z,98569.00
2018-10-07T14:06:49.993Z,98575.00
2018-10-07T14:09:19.032Z,98570.00
2018-10-07T14:11:48.106Z,98572.00
2018-10-07T14:14:17.177Z,98575.00
2018-10-07T14:16:46.317Z,98574.00
2018-10-07T14:19:15.388Z,98574.00
2018-10-07T14:21:44.508Z,98579.00
2018-10-07T14:24:13.557Z,98586.00
2018-10-07T14:26:42.653Z,98590.00
2018-10-07T14:29:11.768Z,98600.00
2018-10-07T14:31:40.884Z,98598.00
2018-10-07T14:34:09.981Z,98601.00
2018-10-07T14:36:39.340Z,98605.00
2018-10-07T14:39:11.482Z,98612.00
2018-10-07T14:41:40.504Z,98607.00
2018-10-07T14:44:09.776Z,98622.00
2018-10-07T14:46:38.872Z,98622.00
2018-10-07T14:49:08.219Z,98625.00
2018-10-07T14:51:37.621Z,98632.00
2018-10-07T14:54:06.693Z,98635.00
2018-10-07T14:56:36.184Z,98641.00
2018-10-07T14:59:05.260Z,98642.00
2018-10-07T15:01:34.954Z,98647.00
2018-10-07T15:04:04.033Z,98653.00
2018-10-07T15:06:33.104Z,98651.00
2018-10-07T15:09:02.156Z,98658.00
2018-10-07T15:11:31.304Z,98660.00
2018-10-07T15:14:00.401Z,98658.00
2018-10-07T15:16:29.460Z,98667.00
2018-10-07T15:18:58.627Z,98664.00
2018-10-07T15:21:27.682Z,98666.00
2018-10-07T15:23:56.781Z,98669.00
2018-10-07T15:26:25.932Z,98671.00
2018-10-07T15:28:55.073Z,98673.00
2018-10-07T15:31:24.148Z,98664.00
2018-10-07T15:33:53.369Z,98657.00
2018-10-07T15:36:22.461Z,98656.00
2018-10-07T15:38:51.487Z,98654.00
2018-10-07T15:41:20.567Z,98661.00
2018-10-07T15:43:49.640Z,98654.00
2018-10-07T15:46:18.741Z,98649.00
2018-10-07T15:48:48.189Z,98654.00
2018-10-07T15:51:17.252Z,98648.00
2018-10-07T15:53:46.312Z,98656.00
2018-10-07T15:56:15.399Z,98653.00
2018-10-07T15:58:44.525Z,98659.00
2018-10-07T16:01:13.568Z,98661.00
2018-10-07T16:03:42.684Z,98668.00
2018-10-07T16:06:12.017Z,98671.00
2018-10-07T16:08:41.157Z,98675.00
2018-10-07T16:11:10.309Z,98683.00
2018-10-07T16:13:39.532Z,98678.00
2018-10-07T16:16:08.661Z,98679.00
2018-10-07T16:18:37.824Z,98675.00
2018-10-07T16:21:06.872Z,98678.00
2018-10-07T16:23:35.893Z,98682.00
2018-10-07T16:26:05.019Z,98686.00
2018-10-07T16:28:34.064Z,98687.00
2018-10-07T16:31:03.140Z,98692.00
2018-10-07T16:33:32.763Z,98697.00
2018-10-07T16:36:01.833Z,98705.00
2018-10-07T16:38:30.896Z,98706.00
2018-10-07T16:41:00.011Z,98710.00
2018-10-07T16:43:29.141Z,98715.00
2018-10-07T16:45:58.273Z,98723.00
2018-10-07T16:48:27.364Z,98724.00
2018-10-07T16:50:56.476Z,98731.00
2018-10-07T16:53:25.548Z,98732.00
2018-10-07T16:55:54.649Z,98733.00
2018-10-07T16:58:23.732Z,98739.00
2018-10-07T17:00:52.796Z,98744.00
2018-10-07T17:03:21.872Z,98742.00
2018-10-07T17:05:51.027Z,98754.00
2018-10-07T17:08:20.087Z,98750.00
2018-10-07T17:10:49.170Z,98763.00
2018-10-07T17:13:18.251Z,98768.00
2018-10-07T17:15:47.329Z,98776.00
2018-10-07T17:18:16.495Z,98778.00
2018-10-07T17:20:45.564Z,98786.00
2018-10-07T17:23:14.690Z,98798.00
2018-10-07T17:25:43.788Z,98796.00
2018-10-07T17:28:12.856Z,98804.00
2018-10-07T17:30:41.952Z,98800.00
2018-10-07T17:33:11.726Z,98809.00
2018-10-07T17:35:40.827Z,98810.00
2018-10-07T17:38:09.901Z,98821.00
2018-10-07T17:40:39.201Z,98830.00
2018-10-07T17:43:08.273Z,98830.00
2018-10-07T17:45:37.371Z,98836.00
2018-10-07T17:48:06.483Z,98844.00
2018-10-07T17:50:35.520Z,98848.00
2018-10-07T17:53:04.609Z,98854.00
2018-10-07T17:55:33.748Z,98856.00
2018-10-07T17:58:02.821Z,98864.00
2018-10-07T18:00:31.893Z,98868.00
2018-10-07T18:03:01.065Z,98864.00
2018-10-07T18:05:30.096Z,98867.00
2018-10-07T18:07:59.225Z,98871.00
2018-10-07T18:10:28.312Z,98871.00
2018-10-07T18:12:57.380Z,98871.00
2018-10-07T18:15:26.488Z,98870.00
2018-10-07T18:17:55.596Z,98881.00
2018-10-07T18:20:24.628Z,98878.00
2018-10-07T18:22:53.660Z,98885.00
2018-10-07T18:25:22.780Z,98887.00
2018-10-07T18:27:51.888Z,98886.00
2018-10-07T18:30:20.980Z,98890.00
2018-10-07T18:32:50.052Z,98893.00
2018-10-07T18:35:19.201Z,98899.00
2018-10-07T18:37:48.252Z,98901.00
2018-10-07T18:40:17.390Z,98905.00
2018-10-07T18:42:46.460Z,98914.00
2018-10-07T18:45:15.533Z,98915.00
2018-10-07T18:47:44.636Z,98921.00
2018-10-07T18:50:13.720Z,98922.00
2018-10-07T18:52:42.817Z,98932.00
2018-10-07T18:55:11.879Z,98934.00
2018-10-07T18:57:41.028Z,98939.00
2018-10-07T19:00:11.476Z,98942.00
2018-10-07T19:02:41.018Z,98941.00
2018-10-07T19:05:09.976Z,98946.00
2018-10-07T19:07:39.049Z,98952.00
2018-10-07T19:10:08.108Z,98952.00
2018-10-07T19:12:37.169Z,98954.00
2018-10-07T19:15:06.280Z,98953.00
2018-10-07T19:17:35.409Z,98950.00
2018-10-07T19:20:04.504Z,98956.00
2018-10-07T19:22:33.621Z,98955.00
2018-10-07T19:25:02.671Z,98962.00
2018-10-07T19:27:31.734Z,98967.00
2018-10-07T19:30:00.812Z,98970.00
2018-10-07T19:32:30.209Z,98974.00
2018-10-07T19:34:59.268Z,98975.00
2018-10-07T19:37:28.736Z,98982.00
2018-10-07T19:39:57.637Z,98982.00
2018-10-07T19:42:26.668Z,98986.00
2018-10-07T19:44:55.753Z,98988.00
2018-10-07T19:47:24.832Z,98992.00
2018-10-07T19:49:55.005Z,98996.00
2018-10-07T19:52:24.175Z,98992.00
2018-10-07T19:54:53.364Z,98996.00
2018-10-07T19:57:22.468Z,98997.00
2018-10-07T19:59:51.694Z,99000.00
2018-10-07T20:02:20.677Z,99004.00
2018-10-07T20:04:49.801Z,99004.00
2018-10-07T20:07:18.864Z,99003.00
2018-10-07T20:09:47.924Z,99004.00
2018-10-07T20:12:17.021Z,99005.00
2018-10-07T20:14:46.124Z,98999.00
2018-10-07T20:17:15.260Z,99005.00
2018-10-07T20:19:44.374Z,99005.00
2018-10-07T20:22:16.856Z,99011.00
2018-10-07T20:24:45.912Z,99015.00
2018-10-07T20:27:15.021Z,99013.00
2018-10-07T20:29:44.129Z,99019.00
2018-10-07T20:32:13.152Z,99023.00
2018-10-07T20:34:42.233Z,99030.00
2018-10-07T20:37:11.430Z,99035.00
2018-10-07T20:39:40.600Z,99041.00
2018-10-07T20:42:09.640Z,99038.00
2018-10-07T20:44:38.793Z,99042.00
2018-10-07T20:47:07.856Z,99037.00
2018-10-07T20:49:36.997Z,99036.00
2018-10-07T20:52:07.144Z,99035.00
2018-10-07T20:54:36.144Z,99032.00
2018-10-07T20:57:05.240Z,99034.00
2018-10-07T20:59:34.348Z,99029.00
2018-10-07T21:02:04.073Z,99033.00
2018-10-07T21:04:33.164Z,99037.00
2018-10-07T21:07:02.406Z,99037.00
2018-10-07T21:09:31.424Z,99037.00
2018-10-07T21:12:00.497Z,99037.00
2018-10-07T21:14:29.574Z,99034.00
2018-10-07T21:16:58.657Z,99033.00
2018-10-07T21:19:27.736Z,99024.00
2018-10-07T21:21:56.809Z,99026.00
2018-10-07T21:24:25.825Z,99030.00
2018-10-07T21:26:54.946Z,99034.00
2018-10-07T21:29:24.346Z,99038.00
2018-10-07T21:31:53.447Z,99040.00
2018-10-07T21:34:22.500Z,99044.00
2018-10-07T21:36:51.635Z,99041.00
2018-10-07T21:39:20.732Z,99047.00
2018-10-07T21:41:49.801Z,99039.00
2018-10-07T21:44:18.916Z,99034.00
2018-10-07T21:46:48.076Z,99034.00
2018-10-07T21:49:17.072Z,99035.00
2018-10-07T21:51:46.100Z,99040.00
2018-10-07T21:54:15.609Z,99036.00
2018-10-07T21:56:44.621Z,99036.00
2018-10-07T21:59:13.671Z,99040.00
2018-10-07T22:01:42.757Z,99040.00
2018-10-07T22:04:11.780Z,99035.00
2018-10-07T22:06:40.982Z,99033.00
2018-10-07T22:09:10.079Z,99025.00
2018-10-07T22:11:39.124Z,99019.00
2018-10-07T22:14:08.269Z,99015.00
2018-10-07T22:16:37.669Z,99018.00
2018-10-07T22:19:06.768Z,99018.00
2018-10-07T22:21:35.861Z,99036.00
2018-10-07T22:24:05.444Z,99037.00
2018-10-07T22:26:34.508Z,99046.00
2018-10-07T22:29:03.612Z,99039.00
2018-10-07T22:31:33.381Z,99038.00
2018-10-07T22:34:02.464Z,99039.00
2018-10-07T22:36:31.844Z,99036.00
2018-10-07T22:39:01.229Z,99038.00
2018-10-07T22:41:30.280Z,99038.00
2018-10-07T22:43:59.359Z,99041.00
2018-10-07T22:46:28.428Z,99038.00
2018-10-07T22:48:57.705Z,99040.00
2018-10-07T22:51:26.807Z,99049.00
2018-10-07T22:53:57.120Z,99044.00
2018-10-07T22:56:26.244Z,99041.00
2018-10-07T22:58:55.328Z,99041.00
2018-10-07T23:01:24.423Z,99039.00
2018-10-07T23:03:53.444Z,99039.00
2018-10-07T23:06:22.493Z,99034.00
2018-10-07T23:08:52.259Z,99032.00
2018-10-07T23:11:21.353Z,99023.00
2018-10-07T23:13:50.424Z,99028.00
2018-10-07T23:16:19.652Z,99027.00
2018-10-07T23:18:48.744Z,99023.00
2018-10-07T23:21:17.836Z,99023.00
2018-10-07T23:23:47.562Z,99023.00
2018-10-07T23:26:16.732Z,99019.00
2018-10-07T23:28:45.733Z,99022.00
2018-10-07T23:31:14.849Z,99019.00
2018-10-07T23:33:43.930Z,99020.00
2018-10-07T23:36:13.000Z,99013.00
2018-10-07T23:38:42.277Z,99017.00
2018-10-07T23:41:11.312Z,99019.00
2018-10-07T23:43:40.376Z,99024.00
2018-10-07T23:46:09.485Z,99022.00
2018-10-07T23:48:38.567Z,99020.00
2018-10-07T23:51:07.660Z,99028.00
2018-10-07T23:53:37.643Z,99027.00
2018-10-07T23:56:06.841Z,99026.00
2018-10-07T23:58:35.972Z,99025.00
